sensor_id;sensor_type;location;lat;lon;timestamp;pressure;altitude;pressure_sealevel;temperature;humidity
64200;BME280;50516;52.272;5.136;2023-01-28T00:00:04;103035.41;;;4.43;71.13
64200;BME280;50516;52.272;5.136;2023-01-28T00:02:31;103035.81;;;4.63;70.45
64200;BME280;50516;52.272;5.136;2023-01-28T00:04:56;103045.03;;;4.53;70.56
64200;BME280;50516;52.272;5.136;2023-01-28T00:07:22;103038.88;;;4.60;70.63
64200;BME280;50516;52.272;5.136;2023-01-28T00:09:47;103034.03;;;4.70;69.95
64200;BME280;50516;52.272;5.136;2023-01-28T00:12:12;103038.78;;;4.76;70.02
64200;BME280;50516;52.272;5.136;2023-01-28T00:14:38;103036.41;;;4.73;69.77
64200;BME280;50516;52.272;5.136;2023-01-28T00:17:05;103029.91;;;4.82;69.50
64200;BME280;50516;52.272;5.136;2023-01-28T00:19:30;103043.25;;;4.69;69.57
64200;BME280;50516;52.272;5.136;2023-01-28T00:21:55;103029.38;;;4.55;69.46
64200;BME280;50516;52.272;5.136;2023-01-28T00:24:21;103041.78;;;4.58;69.41
64200;BME280;50516;52.272;5.136;2023-01-28T00:26:46;103030.13;;;4.72;69.45
64200;BME280;50516;52.272;5.136;2023-01-28T00:29:11;103026.69;;;4.79;69.27
64200;BME280;50516;52.272;5.136;2023-01-28T00:31:37;103022.84;;;4.65;69.61
64200;BME280;50516;52.272;5.136;2023-01-28T00:34:05;103027.59;;;4.71;69.10
64200;BME280;50516;52.272;5.136;2023-01-28T00:36:30;103018.34;;;4.80;68.88
64200;BME280;50516;52.272;5.136;2023-01-28T00:38:57;103027.78;;;4.92;68.92
64200;BME280;50516;52.272;5.136;2023-01-28T00:41:26;103028.41;;;5.03;68.40
64200;BME280;50516;52.272;5.136;2023-01-28T00:43:52;103034.56;;;4.97;68.41
64200;BME280;50516;52.272;5.136;2023-01-28T00:46:19;103031.66;;;4.98;68.70
64200;BME280;50516;52.272;5.136;2023-01-28T00:48:45;103035.91;;;5.01;68.07
64200;BME280;50516;52.272;5.136;2023-01-28T00:51:12;103029.13;;;4.97;68.38
64200;BME280;50516;52.272;5.136;2023-01-28T00:53:38;103020.59;;;5.00;68.21
64200;BME280;50516;52.272;5.136;2023-01-28T00:56:05;103032.63;;;4.82;68.58
64200;BME280;50516;52.272;5.136;2023-01-28T00:58:32;103024.75;;;4.87;68.76
64200;BME280;50516;52.272;5.136;2023-01-28T01:01:06;103023.78;;;5.03;68.14
64200;BME280;50516;52.272;5.136;2023-01-28T01:03:32;103012.06;;;5.03;68.56
64200;BME280;50516;52.272;5.136;2023-01-28T01:05:57;103024.94;;;5.09;68.73
64200;BME280;50516;52.272;5.136;2023-01-28T01:08:23;103023.53;;;5.13;68.30
64200;BME280;50516;52.272;5.136;2023-01-28T01:10:59;103025.13;;;5.07;68.60
64200;BME280;50516;52.272;5.136;2023-01-28T01:13:25;103020.88;;;5.05;68.69
64200;BME280;50516;52.272;5.136;2023-01-28T01:16:00;103026.41;;;4.97;68.65
64200;BME280;50516;52.272;5.136;2023-01-28T01:18:25;103022.28;;;5.01;68.35
64200;BME280;50516;52.272;5.136;2023-01-28T01:20:51;103026.34;;;5.05;68.64
64200;BME280;50516;52.272;5.136;2023-01-28T01:23:26;103018.53;;;5.02;68.39
64200;BME280;50516;52.272;5.136;2023-01-28T01:25:53;103016.47;;;5.04;68.79
64200;BME280;50516;52.272;5.136;2023-01-28T01:28:18;103012.91;;;5.03;68.49
64200;BME280;50516;52.272;5.136;2023-01-28T01:30:45;103023.78;;;5.03;68.87
64200;BME280;50516;52.272;5.136;2023-01-28T01:33:10;103032.50;;;4.99;68.28
64200;BME280;50516;52.272;5.136;2023-01-28T01:35:36;103023.06;;;5.09;68.32
64200;BME280;50516;52.272;5.136;2023-01-28T01:38:01;103027.41;;;4.96;68.68
64200;BME280;50516;52.272;5.136;2023-01-28T01:40:28;103033.47;;;5.06;68.50
64200;BME280;50516;52.272;5.136;2023-01-28T01:42:54;103025.78;;;5.09;68.38
64200;BME280;50516;52.272;5.136;2023-01-28T01:45:19;103029.84;;;5.14;68.32
64200;BME280;50516;52.272;5.136;2023-01-28T01:48:05;103032.75;;;5.12;68.15
64200;BME280;50516;52.272;5.136;2023-01-28T01:50:42;103030.03;;;5.12;68.31
64200;BME280;50516;52.272;5.136;2023-01-28T01:53:21;103035.50;;;5.12;68.63
64200;BME280;50516;52.272;5.136;2023-01-28T01:55:49;103032.75;;;5.12;68.62
64200;BME280;50516;52.272;5.136;2023-01-28T01:58:18;103036.16;;;5.14;68.55
64200;BME280;50516;52.272;5.136;2023-01-28T02:00:44;103026.09;;;5.15;68.21
64200;BME280;50516;52.272;5.136;2023-01-28T02:03:10;103033.84;;;5.03;68.54
64200;BME280;50516;52.272;5.136;2023-01-28T02:05:38;103032.63;;;5.05;68.99
64200;BME280;50516;52.272;5.136;2023-01-28T02:08:04;103039.03;;;5.12;68.40
64200;BME280;50516;52.272;5.136;2023-01-28T02:11:01;103027.97;;;5.14;68.33
64200;BME280;50516;52.272;5.136;2023-01-28T02:13:37;103039.03;;;5.12;68.08
64200;BME280;50516;52.272;5.136;2023-01-28T02:16:04;103032.19;;;5.17;67.87
64200;BME280;50516;52.272;5.136;2023-01-28T02:18:31;103034.97;;;5.08;68.23
64200;BME280;50516;52.272;5.136;2023-01-28T02:21:21;103044.75;;;5.03;68.46
64200;BME280;50516;52.272;5.136;2023-01-28T02:37:56;103045.44;;;4.97;68.05
64200;BME280;50516;52.272;5.136;2023-01-28T02:40:31;103049.56;;;4.92;67.98
64200;BME280;50516;52.272;5.136;2023-01-28T02:42:58;103052.59;;;4.98;68.33
64200;BME280;50516;52.272;5.136;2023-01-28T02:45:25;103046.81;;;5.01;67.81
64200;BME280;50516;52.272;5.136;2023-01-28T02:48:15;103053.63;;;4.97;68.22
64200;BME280;50516;52.272;5.136;2023-01-28T02:50:49;103055.81;;;5.01;68.06
64200;BME280;50516;52.272;5.136;2023-01-28T02:53:23;103052.44;;;4.99;67.80
64200;BME280;50516;52.272;5.136;2023-01-28T02:56:13;103043.50;;;5.05;68.34
64200;BME280;50516;52.272;5.136;2023-01-28T03:01:52;103034.56;;;4.97;67.68
64200;BME280;50516;52.272;5.136;2023-01-28T03:04:37;103037.94;;;4.99;67.70
64200;BME280;50516;52.272;5.136;2023-01-28T03:07:06;103045.41;;;5.05;67.56
64200;BME280;50516;52.272;5.136;2023-01-28T03:09:34;103046.97;;;4.99;67.89
64200;BME280;50516;52.272;5.136;2023-01-28T03:12:22;103052.53;;;5.06;67.32
64200;BME280;50516;52.272;5.136;2023-01-28T03:15:19;103041.03;;;4.96;67.64
64200;BME280;50516;52.272;5.136;2023-01-28T03:18:15;103038.31;;;4.96;68.09
64200;BME280;50516;52.272;5.136;2023-01-28T03:21:06;103046.75;;;4.78;67.89
64200;BME280;50516;52.272;5.136;2023-01-28T03:24:01;103035.28;;;4.90;68.16
64200;BME280;50516;52.272;5.136;2023-01-28T03:26:55;103042.56;;;4.98;67.77
64200;BME280;50516;52.272;5.136;2023-01-28T03:29:41;103038.81;;;4.99;67.59
64200;BME280;50516;52.272;5.136;2023-01-28T03:32:27;103028.81;;;4.91;67.83
64200;BME280;50516;52.272;5.136;2023-01-28T03:35:14;103033.72;;;4.96;67.66
64200;BME280;50516;52.272;5.136;2023-01-28T03:38:01;103036.34;;;4.89;67.78
64200;BME280;50516;52.272;5.136;2023-01-28T03:40:54;103035.94;;;4.92;67.95
64200;BME280;50516;52.272;5.136;2023-01-28T03:43:20;103043.38;;;4.99;67.94
64200;BME280;50516;52.272;5.136;2023-01-28T03:45:47;103032.31;;;5.00;67.66
64200;BME280;50516;52.272;5.136;2023-01-28T03:48:19;103058.53;;;5.01;67.30
64200;BME280;50516;52.272;5.136;2023-01-28T03:50:45;103054.34;;;4.90;67.92
64200;BME280;50516;52.272;5.136;2023-01-28T03:53:10;103040.59;;;4.61;67.16
64200;BME280;50516;52.272;5.136;2023-01-28T03:55:37;103049.66;;;4.76;67.61
64200;BME280;50516;52.272;5.136;2023-01-28T03:58:03;103058.47;;;4.86;67.48
64200;BME280;50516;52.272;5.136;2023-01-28T04:00:30;103052.09;;;4.94;66.58
64200;BME280;50516;52.272;5.136;2023-01-28T04:02:56;103051.97;;;4.87;67.57
64200;BME280;50516;52.272;5.136;2023-01-28T04:05:22;103055.97;;;5.00;67.08
64200;BME280;50516;52.272;5.136;2023-01-28T04:07:47;103062.16;;;4.93;66.88
64200;BME280;50516;52.272;5.136;2023-01-28T04:10:15;103061.13;;;4.94;67.50
64200;BME280;50516;52.272;5.136;2023-01-28T04:12:41;103064.56;;;4.88;67.21
64200;BME280;50516;52.272;5.136;2023-01-28T04:15:08;103065.59;;;4.87;67.55
64200;BME280;50516;52.272;5.136;2023-01-28T04:17:43;103073.03;;;4.93;67.62
64200;BME280;50516;52.272;5.136;2023-01-28T04:20:09;103075.41;;;4.97;67.59
64200;BME280;50516;52.272;5.136;2023-01-28T04:22:35;103067.13;;;4.90;68.15
64200;BME280;50516;52.272;5.136;2023-01-28T04:25:00;103073.09;;;4.85;67.91
64200;BME280;50516;52.272;5.136;2023-01-28T04:27:26;103068.19;;;4.81;68.11
64200;BME280;50516;52.272;5.136;2023-01-28T04:29:51;103066.28;;;4.81;67.95
64200;BME280;50516;52.272;5.136;2023-01-28T04:32:16;103074.09;;;4.84;68.05
64200;BME280;50516;52.272;5.136;2023-01-28T04:34:42;103075.19;;;4.75;67.29
64200;BME280;50516;52.272;5.136;2023-01-28T04:37:07;103072.53;;;4.67;67.06
64200;BME280;50516;52.272;5.136;2023-01-28T04:39:33;103069.81;;;4.58;67.33
64200;BME280;50516;52.272;5.136;2023-01-28T04:41:58;103060.09;;;4.33;68.06
64200;BME280;50516;52.272;5.136;2023-01-28T04:44:24;103061.41;;;4.37;67.66
64200;BME280;50516;52.272;5.136;2023-01-28T04:46:49;103063.53;;;4.58;67.22
64200;BME280;50516;52.272;5.136;2023-01-28T04:49:14;103051.16;;;4.55;66.99
64200;BME280;50516;52.272;5.136;2023-01-28T04:51:40;103063.31;;;4.68;67.37
64200;BME280;50516;52.272;5.136;2023-01-28T04:54:06;103061.41;;;4.77;67.42
64200;BME280;50516;52.272;5.136;2023-01-28T04:56:31;103063.56;;;4.81;66.88
64200;BME280;50516;52.272;5.136;2023-01-28T04:58:57;103061.06;;;4.80;67.32
64200;BME280;50516;52.272;5.136;2023-01-28T05:01:22;103062.88;;;4.87;67.09
64200;BME280;50516;52.272;5.136;2023-01-28T05:03:49;103054.88;;;4.86;67.35
64200;BME280;50516;52.272;5.136;2023-01-28T05:06:14;103064.25;;;4.83;67.57
64200;BME280;50516;52.272;5.136;2023-01-28T05:08:40;103072.06;;;4.86;66.90
64200;BME280;50516;52.272;5.136;2023-01-28T05:11:05;103066.13;;;4.83;66.81
64200;BME280;50516;52.272;5.136;2023-01-28T05:13:31;103075.50;;;4.80;66.99
64200;BME280;50516;52.272;5.136;2023-01-28T05:15:56;103079.78;;;4.74;67.06
64200;BME280;50516;52.272;5.136;2023-01-28T05:18:21;103069.75;;;4.75;67.05
64200;BME280;50516;52.272;5.136;2023-01-28T05:20:47;103076.88;;;4.76;66.67
64200;BME280;50516;52.272;5.136;2023-01-28T05:23:12;103070.72;;;4.82;66.64
64200;BME280;50516;52.272;5.136;2023-01-28T05:25:38;103074.50;;;4.73;66.48
64200;BME280;50516;52.272;5.136;2023-01-28T05:28:03;103078.19;;;4.57;66.80
64200;BME280;50516;52.272;5.136;2023-01-28T05:30:28;103059.22;;;4.72;66.67
64200;BME280;50516;52.272;5.136;2023-01-28T05:32:55;103061.94;;;4.72;67.35
64200;BME280;50516;52.272;5.136;2023-01-28T05:35:21;103060.25;;;4.71;67.10
64200;BME280;50516;52.272;5.136;2023-01-28T05:37:46;103047.63;;;4.78;67.07
64200;BME280;50516;52.272;5.136;2023-01-28T05:40:12;103041.44;;;4.84;66.82
64200;BME280;50516;52.272;5.136;2023-01-28T05:42:37;103053.69;;;4.88;66.75
64200;BME280;50516;52.272;5.136;2023-01-28T05:45:03;103054.75;;;4.79;67.20
64200;BME280;50516;52.272;5.136;2023-01-28T05:47:28;103059.03;;;4.73;66.90
64200;BME280;50516;52.272;5.136;2023-01-28T05:49:53;103069.75;;;4.75;67.45
64200;BME280;50516;52.272;5.136;2023-01-28T05:52:19;103073.97;;;4.78;67.29
64200;BME280;50516;52.272;5.136;2023-01-28T05:54:44;103064.13;;;4.77;66.70
64200;BME280;50516;52.272;5.136;2023-01-28T05:57:09;103068.84;;;4.83;66.75
64200;BME280;50516;52.272;5.136;2023-01-28T05:59:35;103075.78;;;4.62;66.74
64200;BME280;50516;52.272;5.136;2023-01-28T06:02:00;103075.03;;;4.37;67.89
64200;BME280;50516;52.272;5.136;2023-01-28T06:04:25;103074.59;;;4.17;68.11
64200;BME280;50516;52.272;5.136;2023-01-28T06:06:51;103073.88;;;4.31;67.51
64200;BME280;50516;52.272;5.136;2023-01-28T06:09:16;103075.41;;;4.26;67.85
64200;BME280;50516;52.272;5.136;2023-01-28T06:11:41;103073.44;;;3.95;68.05
64200;BME280;50516;52.272;5.136;2023-01-28T06:14:08;103068.72;;;3.72;68.31
64200;BME280;50516;52.272;5.136;2023-01-28T06:16:33;103072.09;;;3.91;68.55
64200;BME280;50516;52.272;5.136;2023-01-28T06:18:59;103074.06;;;4.13;67.67
64200;BME280;50516;52.272;5.136;2023-01-28T06:21:25;103073.56;;;4.18;67.52
64200;BME280;50516;52.272;5.136;2023-01-28T06:23:50;103075.41;;;4.26;67.57
64200;BME280;50516;52.272;5.136;2023-01-28T06:26:15;103070.97;;;4.25;67.13
64200;BME280;50516;52.272;5.136;2023-01-28T06:28:41;103072.41;;;4.04;67.85
64200;BME280;50516;52.272;5.136;2023-01-28T06:31:06;103077.00;;;4.03;67.24
64200;BME280;50516;52.272;5.136;2023-01-28T06:33:32;103075.75;;;4.23;67.61
64200;BME280;50516;52.272;5.136;2023-01-28T06:35:57;103092.00;;;4.39;66.93
64200;BME280;50516;52.272;5.136;2023-01-28T06:38:23;103089.63;;;4.44;66.86
64200;BME280;50516;52.272;5.136;2023-01-28T06:40:52;103076.69;;;4.46;66.57
64200;BME280;50516;52.272;5.136;2023-01-28T06:43:20;103076.34;;;4.49;66.16
64200;BME280;50516;52.272;5.136;2023-01-28T06:45:45;103079.06;;;4.49;66.14
64200;BME280;50516;52.272;5.136;2023-01-28T06:48:11;103081.09;;;4.55;65.71
64200;BME280;50516;52.272;5.136;2023-01-28T06:50:36;103093.84;;;4.47;65.12
64200;BME280;50516;52.272;5.136;2023-01-28T06:53:02;103095.88;;;4.53;65.57
64200;BME280;50516;52.272;5.136;2023-01-28T06:55:27;103092.66;;;4.49;65.92
64200;BME280;50516;52.272;5.136;2023-01-28T06:57:52;103098.25;;;4.56;65.60
64200;BME280;50516;52.272;5.136;2023-01-28T07:00:18;103092.59;;;4.66;65.40
64200;BME280;50516;52.272;5.136;2023-01-28T07:02:43;103083.75;;;4.64;65.43
64200;BME280;50516;52.272;5.136;2023-01-28T07:05:09;103086.47;;;4.64;65.82
64200;BME280;50516;52.272;5.136;2023-01-28T07:07:34;103096.19;;;4.58;65.80
64200;BME280;50516;52.272;5.136;2023-01-28T07:10:00;103095.34;;;4.57;65.41
64200;BME280;50516;52.272;5.136;2023-01-28T07:12:25;103093.13;;;4.61;65.49
64200;BME280;50516;52.272;5.136;2023-01-28T07:14:51;103098.38;;;4.63;65.21
64200;BME280;50516;52.272;5.136;2023-01-28T07:17:16;103098.38;;;4.63;65.41
64200;BME280;50516;52.272;5.136;2023-01-28T07:19:41;103100.09;;;4.64;65.34
64200;BME280;50516;52.272;5.136;2023-01-28T07:22:07;103102.13;;;4.62;65.86
64200;BME280;50516;52.272;5.136;2023-01-28T07:24:32;103103.81;;;4.63;65.61
64200;BME280;50516;52.272;5.136;2023-01-28T07:26:57;103103.47;;;4.66;65.58
64200;BME280;50516;52.272;5.136;2023-01-28T07:29:23;103104.66;;;4.63;65.41
64200;BME280;50516;52.272;5.136;2023-01-28T07:31:48;103096.50;;;4.63;65.63
64200;BME280;50516;52.272;5.136;2023-01-28T07:34:13;103091.41;;;4.68;65.93
64200;BME280;50516;52.272;5.136;2023-01-28T07:36:39;103093.91;;;4.70;66.13
64200;BME280;50516;52.272;5.136;2023-01-28T07:39:04;103108.22;;;4.72;65.77
64200;BME280;50516;52.272;5.136;2023-01-28T07:41:32;103117.22;;;4.72;65.94
64200;BME280;50516;52.272;5.136;2023-01-28T07:43:57;103111.78;;;4.72;66.51
64200;BME280;50516;52.272;5.136;2023-01-28T07:46:22;103118.41;;;4.70;66.49
64200;BME280;50516;52.272;5.136;2023-01-28T07:48:48;103110.25;;;4.70;66.19
64200;BME280;50516;52.272;5.136;2023-01-28T07:51:13;103119.44;;;4.69;65.81
64200;BME280;50516;52.272;5.136;2023-01-28T07:53:38;103113.53;;;4.65;66.73
64200;BME280;50516;52.272;5.136;2023-01-28T07:56:04;103113.00;;;4.62;67.30
64200;BME280;50516;52.272;5.136;2023-01-28T07:58:30;103113.00;;;4.62;68.01
64200;BME280;50516;52.272;5.136;2023-01-28T08:00:59;103114.19;;;4.67;67.63
64200;BME280;50516;52.272;5.136;2023-01-28T08:03:25;103106.84;;;4.68;67.34
64200;BME280;50516;52.272;5.136;2023-01-28T08:05:52;103109.63;;;4.60;67.52
64200;BME280;50516;52.272;5.136;2023-01-28T08:08:19;103109.09;;;4.64;67.55
64200;BME280;50516;52.272;5.136;2023-01-28T08:10:44;103115.69;;;4.70;67.32
64200;BME280;50516;52.272;5.136;2023-01-28T08:13:11;103117.03;;;4.74;67.38
64200;BME280;50516;52.272;5.136;2023-01-28T08:15:37;103125.88;;;4.76;67.46
64200;BME280;50516;52.272;5.136;2023-01-28T08:18:04;103124.16;;;4.83;66.54
64200;BME280;50516;52.272;5.136;2023-01-28T08:20:30;103130.28;;;4.77;65.88
64200;BME280;50516;52.272;5.136;2023-01-28T08:23:17;103125.81;;;4.84;66.28
64200;BME280;50516;52.272;5.136;2023-01-28T08:25:43;103142.50;;;4.89;65.13
64200;BME280;50516;52.272;5.136;2023-01-28T08:28:09;103138.03;;;4.97;65.25
64200;BME280;50516;52.272;5.136;2023-01-28T08:30:36;103148.38;;;5.01;64.61
64200;BME280;50516;52.272;5.136;2023-01-28T08:33:03;103136.19;;;4.89;65.26
64200;BME280;50516;52.272;5.136;2023-01-28T08:35:29;103139.78;;;4.89;65.48
64200;BME280;50516;52.272;5.136;2023-01-28T08:37:58;103138.19;;;4.95;65.04
64200;BME280;50516;52.272;5.136;2023-01-28T08:40:24;103142.09;;;5.01;64.48
64200;BME280;50516;52.272;5.136;2023-01-28T08:42:50;103141.91;;;5.02;64.77
64200;BME280;50516;52.272;5.136;2023-01-28T08:45:18;103151.47;;;4.98;64.73
64200;BME280;50516;52.272;5.136;2023-01-28T08:47:52;103155.66;;;5.09;64.48
64200;BME280;50516;52.272;5.136;2023-01-28T08:50:18;103140.47;;;5.15;63.61
64200;BME280;50516;52.272;5.136;2023-01-28T08:52:45;103145.38;;;5.19;63.06
64200;BME280;50516;52.272;5.136;2023-01-28T08:55:11;103149.09;;;5.26;62.78
64200;BME280;50516;52.272;5.136;2023-01-28T08:57:36;103157.28;;;5.18;62.74
64200;BME280;50516;52.272;5.136;2023-01-28T09:00:03;103166.75;;;5.30;62.59
64200;BME280;50516;52.272;5.136;2023-01-28T09:02:29;103151.72;;;5.43;62.58
64200;BME280;50516;52.272;5.136;2023-01-28T09:04:54;103158.59;;;5.54;61.96
64200;BME280;50516;52.272;5.136;2023-01-28T09:07:19;103163.69;;;5.57;62.02
64200;BME280;50516;52.272;5.136;2023-01-28T09:09:45;103157.09;;;5.51;61.23
64200;BME280;50516;52.272;5.136;2023-01-28T09:12:10;103171.50;;;5.37;62.00
64200;BME280;50516;52.272;5.136;2023-01-28T09:14:36;103169.31;;;5.55;61.18
64200;BME280;50516;52.272;5.136;2023-01-28T09:17:03;103177.75;;;5.69;61.50
64200;BME280;50516;52.272;5.136;2023-01-28T09:19:28;103175.25;;;5.82;61.11
64200;BME280;50516;52.272;5.136;2023-01-28T09:21:53;103185.19;;;5.98;60.52
64200;BME280;50516;52.272;5.136;2023-01-28T09:24:19;103185.59;;;6.10;59.75
64200;BME280;50516;52.272;5.136;2023-01-28T09:26:47;103183.13;;;6.00;59.94
64200;BME280;50516;52.272;5.136;2023-01-28T09:29:12;103184.88;;;5.93;59.68
64200;BME280;50516;52.272;5.136;2023-01-28T09:31:39;103176.53;;;5.94;60.05
64200;BME280;50516;52.272;5.136;2023-01-28T09:34:04;103180.34;;;5.85;59.85
64200;BME280;50516;52.272;5.136;2023-01-28T09:36:30;103189.97;;;5.73;59.88
64200;BME280;50516;52.272;5.136;2023-01-28T09:38:56;103188.22;;;5.80;59.79
64200;BME280;50516;52.272;5.136;2023-01-28T09:41:25;103170.00;;;5.95;59.67
64200;BME280;50516;52.272;5.136;2023-01-28T09:47:23;103185.16;;;6.21;59.44
64200;BME280;50516;52.272;5.136;2023-01-28T09:49:52;103195.22;;;6.20;59.24
64200;BME280;50516;52.272;5.136;2023-01-28T09:52:20;103195.69;;;6.24;59.33
64200;BME280;50516;52.272;5.136;2023-01-28T09:54:49;103198.78;;;6.21;59.04
64200;BME280;50516;52.272;5.136;2023-01-28T09:57:26;103199.06;;;6.26;59.24
64200;BME280;50516;52.272;5.136;2023-01-28T09:59:52;103203.91;;;6.39;58.94
64200;BME280;50516;52.272;5.136;2023-01-28T10:05:02;103205.50;;;6.48;58.36
64200;BME280;50516;52.272;5.136;2023-01-28T10:07:43;103206.63;;;6.54;57.94
64200;BME280;50516;52.272;5.136;2023-01-28T10:10:17;103208.56;;;6.15;58.18
64200;BME280;50516;52.272;5.136;2023-01-28T10:12:49;103192.44;;;5.82;58.86
64200;BME280;50516;52.272;5.136;2023-01-28T10:15:45;103197.78;;;6.22;58.45
64200;BME280;50516;52.272;5.136;2023-01-28T10:18:13;103185.78;;;6.08;58.09
64200;BME280;50516;52.272;5.136;2023-01-28T10:20:46;103182.06;;;6.24;58.13
64200;BME280;50516;52.272;5.136;2023-01-28T10:23:37;103174.94;;;6.38;58.00
64200;BME280;50516;52.272;5.136;2023-01-28T10:26:21;103178.03;;;6.50;57.62
64200;BME280;50516;52.272;5.136;2023-01-28T10:28:52;103183.69;;;6.63;57.58
64200;BME280;50516;52.272;5.136;2023-01-28T10:31:19;103189.78;;;6.20;58.07
64200;BME280;50516;52.272;5.136;2023-01-28T10:33:45;103190.72;;;6.28;57.99
64200;BME280;50516;52.272;5.136;2023-01-28T10:36:10;103185.25;;;6.28;57.64
64200;BME280;50516;52.272;5.136;2023-01-28T10:38:36;103189.09;;;6.18;58.22
64200;BME280;50516;52.272;5.136;2023-01-28T10:41:03;103185.06;;;6.29;58.55
64200;BME280;50516;52.272;5.136;2023-01-28T10:43:34;103185.44;;;6.26;58.05
64200;BME280;50516;52.272;5.136;2023-01-28T10:46:05;103180.13;;;6.48;57.88
64200;BME280;50516;52.272;5.136;2023-01-28T10:48:35;103168.78;;;6.81;56.86
64200;BME280;50516;52.272;5.136;2023-01-28T10:51:03;103152.78;;;6.78;56.68
64200;BME280;50516;52.272;5.136;2023-01-28T10:53:37;103141.13;;;6.54;56.55
64200;BME280;50516;52.272;5.136;2023-01-28T10:56:04;103138.38;;;6.84;56.30
64200;BME280;50516;52.272;5.136;2023-01-28T10:58:33;103137.19;;;7.08;56.29
64200;BME280;50516;52.272;5.136;2023-01-28T11:01:02;103128.50;;;7.41;55.55
64200;BME280;50516;52.272;5.136;2023-01-28T11:03:29;103127.31;;;6.70;55.85
64200;BME280;50516;52.272;5.136;2023-01-28T11:05:56;103119.00;;;6.79;56.57
64200;BME280;50516;52.272;5.136;2023-01-28T11:08:23;103101.09;;;6.76;57.06
64200;BME280;50516;52.272;5.136;2023-01-28T11:10:50;103112.59;;;6.86;56.96
64200;BME280;50516;52.272;5.136;2023-01-28T11:13:21;103101.94;;;6.76;56.64
64200;BME280;50516;52.272;5.136;2023-01-28T11:15:54;103088.41;;;6.68;57.10
64200;BME280;50516;52.272;5.136;2023-01-28T11:18:30;103093.84;;;6.68;56.94
64200;BME280;50516;52.272;5.136;2023-01-28T11:20:59;103090.81;;;6.78;57.19
64200;BME280;50516;52.272;5.136;2023-01-28T11:23:30;103085.06;;;6.88;56.67
64200;BME280;50516;52.272;5.136;2023-01-28T11:26:22;103076.59;;;6.98;56.35
64200;BME280;50516;52.272;5.136;2023-01-28T11:28:48;103076.59;;;6.98;56.51
64200;BME280;50516;52.272;5.136;2023-01-28T11:31:16;103063.38;;;7.01;56.37
64200;BME280;50516;52.272;5.136;2023-01-28T11:33:47;103076.72;;;7.11;56.01
64200;BME280;50516;52.272;5.136;2023-01-28T11:36:27;103071.50;;;6.94;56.72
64200;BME280;50516;52.272;5.136;2023-01-28T11:38:58;103083.44;;;6.93;57.20
64200;BME280;50516;52.272;5.136;2023-01-28T11:41:29;103081.19;;;6.97;57.19
64200;BME280;50516;52.272;5.136;2023-01-28T11:43:57;103077.91;;;6.87;56.46
64200;BME280;50516;52.272;5.136;2023-01-28T11:58:00;103092.03;;;6.90;57.36
64200;BME280;50516;52.272;5.136;2023-01-28T12:08:59;103113.28;;;6.73;58.20
64200;BME280;50516;52.272;5.136;2023-01-28T12:14:46;103112.59;;;6.71;58.11
64200;BME280;50516;52.272;5.136;2023-01-28T12:23:02;103101.03;;;6.69;58.39
64200;BME280;50516;52.272;5.136;2023-01-28T12:40:08;103051.84;;;7.77;56.69
64200;BME280;50516;52.272;5.136;2023-01-28T12:42:26;103051.88;;;8.12;56.06
64200;BME280;50516;52.272;5.136;2023-01-28T12:48:10;103030.91;;;8.33;55.85
64200;BME280;50516;52.272;5.136;2023-01-28T12:50:50;103030.88;;;8.26;56.31
64200;BME280;50516;52.272;5.136;2023-01-28T12:56:16;103036.53;;;7.55;58.12
64200;BME280;50516;52.272;5.136;2023-01-28T12:58:49;103035.47;;;7.56;57.85
64200;BME280;50516;52.272;5.136;2023-01-28T13:01:30;103024.59;;;7.34;57.70
64200;BME280;50516;52.272;5.136;2023-01-28T13:04:05;103029.09;;;7.20;57.84
64200;BME280;50516;52.272;5.136;2023-01-28T13:09:16;103017.50;;;7.18;58.11
64200;BME280;50516;52.272;5.136;2023-01-28T13:11:42;103010.78;;;7.42;57.86
64200;BME280;50516;52.272;5.136;2023-01-28T13:14:11;103018.34;;;7.40;58.64
64200;BME280;50516;52.272;5.136;2023-01-28T13:16:36;103014.63;;;7.26;58.95
64200;BME280;50516;52.272;5.136;2023-01-28T13:21:43;102997.78;;;7.23;59.63
64200;BME280;50516;52.272;5.136;2023-01-28T13:31:41;103011.53;;;7.58;58.36
64200;BME280;50516;52.272;5.136;2023-01-28T13:34:24;103020.03;;;7.70;58.38
64200;BME280;50516;52.272;5.136;2023-01-28T13:36:51;103020.94;;;7.48;57.20
64200;BME280;50516;52.272;5.136;2023-01-28T13:39:22;103017.69;;;7.66;57.71
64200;BME280;50516;52.272;5.136;2023-01-28T13:41:49;103010.78;;;7.71;57.74
64200;BME280;50516;52.272;5.136;2023-01-28T13:46:58;103016.38;;;7.34;58.17
64200;BME280;50516;52.272;5.136;2023-01-28T13:49:36;103012.22;;;7.38;57.88
64200;BME280;50516;52.272;5.136;2023-01-28T13:52:16;103013.94;;;7.46;57.96
64200;BME280;50516;52.272;5.136;2023-01-28T13:54:57;103017.41;;;7.55;58.12
64200;BME280;50516;52.272;5.136;2023-01-28T14:05:57;103050.34;;;7.25;59.31
64200;BME280;50516;52.272;5.136;2023-01-28T14:08:53;103052.16;;;7.61;59.66
64200;BME280;50516;52.272;5.136;2023-01-28T14:16:51;103036.63;;;7.40;59.97
64200;BME280;50516;52.272;5.136;2023-01-28T14:19:32;103048.88;;;7.22;59.45
64200;BME280;50516;52.272;5.136;2023-01-28T14:22:04;103044.50;;;7.28;60.21
64200;BME280;50516;52.272;5.136;2023-01-28T14:24:30;103033.44;;;7.36;59.73
64200;BME280;50516;52.272;5.136;2023-01-28T14:27:06;103034.34;;;7.00;60.63
64200;BME280;50516;52.272;5.136;2023-01-28T14:29:43;103024.88;;;7.18;60.92
64200;BME280;50516;52.272;5.136;2023-01-28T14:32:12;103025.84;;;7.31;60.71
64200;BME280;50516;52.272;5.136;2023-01-28T14:34:40;103022.53;;;7.15;60.74
64200;BME280;50516;52.272;5.136;2023-01-28T14:37:14;103016.28;;;6.99;61.59
64200;BME280;50516;52.272;5.136;2023-01-28T14:39:53;103025.91;;;6.95;60.88
64200;BME280;50516;52.272;5.136;2023-01-28T14:42:34;103015.38;;;6.92;61.97
64200;BME280;50516;52.272;5.136;2023-01-28T14:55:55;103046.78;;;7.03;60.67
64200;BME280;50516;52.272;5.136;2023-01-28T14:58:48;103052.19;;;6.96;61.54
64200;BME280;50516;52.272;5.136;2023-01-28T15:01:26;103050.63;;;6.87;61.89
64200;BME280;50516;52.272;5.136;2023-01-28T15:03:52;103039.13;;;6.91;62.24